Details From YLHI - Lord Howe Island
To YSNF - Norfolk Island Intl
Flight Number -
Tags generated
Created
Modified
Stats Distance 484 nm / 896 km
Max Altitude 35,000 ft / 10,668 m
Waypoints 5
Social Downloads 0
Likes 0
Share VATSIM

Download

Looking for another format? Having issues loading an existing format? Contact us
Advertisement - Login to hide

Notes

Basic altitude profile: - Ascent Rate: 2500ft/min - Ascent Speed: 250kts - Cruise Altitude: 35000ft - Cruise Speed: 420kts - Descent Rate: 1500ft/min - Descent Speed: 250kts Options: - Use NATs: yes - Use PACOTS: yes - Use low airways: yes - Use high airways: yes

Route

YLHI LHI B450 NF YSNF

ID Type Via Altitude Latitude Longitude Leg Dist Tot Dist Heading (true) Name
O YLHI APT - 0 ft / 0 m -31.53840˚ 159.07599˚ - 0 nm - Lord Howe Island
LHI NDB - 200 ft / 61 m -31.52889˚ 159.07306˚ 0 nm 0 nm 345° / 345° LORD HOWE ISLAND NDB
TEKEP FIX B450 (AWY-LO) 35,000 ft / 10,668 m -30.49000˚ 163.00000˚ 211 nm 212 nm 74° / 72° -
NF VOR B450 (AWY-LO) 23,500 ft / 7,163 m -29.04733˚ 167.93217˚ 271 nm 483 nm 73° / 70° NORFOLK ISLAND VOR-DME
O YSNF APT - 0 ft / 0 m -29.04206˚ 167.93857˚ 0 nm 483 nm 47° / 47° Norfolk Island Intl

Altitude Profile

Advertisement - Login to hide

Weather


0- 5 10 15 20 25 30 35+ Temperature / ° C

Clouds and Precipitation
Forecast for 2017-12-15 12:00 UTC. Updated 35 minutes ago

Ground ~20,000 ft ~40,000 ft Winds

YLHI

Details ICAO YLHI (LDH)
Name Lord Howe Island
Region Australia
Timezone Unknown (UTC+0.0)
Stats Elevation 16 ft / 5 m (AMSL)
Location -31.538405° 159.075986°
Runways 1
Magnetic Variation 14.054° E

METAR

YLHI 150930Z AUTO 07010KT 9999 // NCD 22/17 Q1018

Decode

TAF

TAF YLHI 150504Z 1506/1606 05010KT 9999 SCT025

Decode

Departure Runways

ID Width Length Bearing (true) Bearing (mag) Surface Threshold Offset Overrun Length
10 98 ft / 30 m 2,902 ft / 885 m 114.50° 100.45° Asphalt 0 ft / 0 m 194 ft / 59 m
28 98 ft / 30 m 2,902 ft / 885 m 294.50° 280.45° Asphalt 322 ft / 98 m 190 ft / 58 m

YSNF

Details ICAO YSNF (NLK)
Name Norfolk Island Intl
Region Australia
Timezone Pacific/Norfolk (UTC+11.0)
Stats Elevation 371 ft / 113 m (AMSL)
Location -29.042060° 167.938575°
Runways 2
Magnetic Variation 14.974° E

METAR

YSNF 150930Z AUTO 10010KT 9999 // SCT020 SCT024 20/17 Q1017

Decode

TAF

TAF YSNF 142320Z 1500/1524 12015G25KT 9999 SCT030 FM150800 10012KT 9999 SCT025

Decode

Destination Runways

ID Width Length Bearing (true) Bearing (mag) Surface Threshold Offset Overrun Length
04 98 ft / 30 m 5,115 ft / 1,559 m 49.90° 34.93° Asphalt 397 ft / 121 m 0 ft / 0 m
11 151 ft / 46 m 6,588 ft / 2,008 m 122.24° 107.27° Asphalt 197 ft / 60 m 0 ft / 0 m
22 98 ft / 30 m 5,115 ft / 1,559 m 229.90° 214.93° Asphalt 0 ft / 0 m 0 ft / 0 m
29 151 ft / 46 m 6,588 ft / 2,008 m 302.23° 287.26° Asphalt 197 ft / 60 m 0 ft / 0 m